Home > Products > Valid Products > TAF

000
FTUS43 KSGF 212000 AAA
TAFSGF
TAF AMD
KSGF 212009Z 2120/2218 34012KT P6SM SKC
     FM212300 36006KT P6SM SKC
     FM221500 09010KT P6SM SKC=



000
FTUS43 KSGF 212000 AAA
TAFJLN
TAF AMD
KJLN 212000Z 2120/2218 36008KT P6SM SKC
     FM221500 08008KT P6SM SKC=



000
FTUS43 KSGF 211800 AAA
TAFSGF
TAF AMD
KSGF 211848Z 2119/2218 36012G17KT P6SM SKC
     FM212300 01006KT P6SM SKC
     FM221500 09010KT P6SM SKC=



000
FTUS43 KSGF 211700
TAFSGF
TAF
KSGF 211720Z 2118/2218 02012G19KT P6SM SKC
     FM212300 01006KT P6SM SKC
     FM221500 09010KT P6SM SKC=



000
FTUS43 KSGF 211700
TAFJLN
TAF
KJLN 211720Z 2118/2218 02012G19KT P6SM SKC
     FM212300 36006KT P6SM SKC
     FM221500 08008KT P6SM SKC=



000
FTUS43 KSGF 211600 AAA
TAFJLN
TAF AMD
KJLN 211604Z 2116/2212 02012G19KT P6SM SKC
     FM212300 36005KT P6SM SKC=



000
FTUS43 KSGF 211600 AAA
TAFSGF
TAF AMD
KSGF 211603Z 2116/2212 03012G19KT P6SM SKC
     FM212300 36005KT P6SM SKC=



000
FTUS43 KSGF 211100
TAFSGF
TAF
KSGF 211120Z 2112/2212 35010KT P6SM SCT250
     FM211700 35012G19KT P6SM SKC
     FM212300 36005KT P6SM SKC=



000
FTUS43 KSGF 211100
TAFJLN
TAF
KJLN 211120Z 2112/2212 35010KT P6SM SCT250
     FM211700 35012G19KT P6SM SKC
     FM212300 36005KT P6SM SKC=



000
FTUS43 KSGF 210900 AAB
TAFSGF
TAF AMD
KSGF 210906Z 2109/2206 25006KT P6SM VCTS SCT050CB BKN250
     FM211100 33010KT P6SM SCT250=



000
FTUS43 KSGF 210800 AAA
TAFSGF
TAF AMD
KSGF 210805Z 2108/2206 25006KT P6SM VCTS SCT050CB BKN250
     FM211200 33010KT P6SM SCT250=



000
FTUS43 KSGF 210800 AAA
TAFJLN
TAF AMD
KJLN 210805Z 2108/2206 25006KT P6SM VCTS SCT050CB BKN250
     FM211100 33010KT P6SM SCT250=



000
FTUS43 KSGF 210500
TAFJLN
TAF
KJLN 210520Z 2106/2206 24005KT P6SM OVC250
     FM211000 25006KT P6SM VCTS SCT050CB BKN250
     FM211500 33010KT P6SM SCT250=



000
FTUS43 KSGF 210500
TAFSGF
TAF
KSGF 210520Z 2106/2206 24005KT P6SM OVC250
     FM211000 25006KT P6SM VCTS SCT050CB BKN250
     FM211500 33010KT P6SM SCT250=



000
FTUS43 KSGF 202300
TAFSGF
TAF
KSGF 202320Z 2100/2124 24006KT P6SM SCT050 BKN250
     FM210500 25006KT P6SM VCTS SCT050CB BKN250
     FM211300 33010KT P6SM SCT250=



000
FTUS43 KSGF 202300
TAFJLN
TAF
KJLN 202320Z 2100/2124 22006KT P6SM SCT050 BKN250
     FM210500 25006KT P6SM VCTS SCT050CB BKN250
     FM211300 35010KT P6SM SCT250=



000
FTUS43 KSGF 201700
TAFJLN
TAF
KJLN 201720Z 2018/2118 23010KT P6SM BKN025
      TEMPO 2018/2020 SCT025
     FM202000 22012KT P6SM FEW030 SCT050
     FM210100 VRB04KT P6SM FEW050 SCT100 BKN250 PROB30 2107/2113 4SM
      -TSRA OVC050CB
     FM211300 31008KT P6SM SCT050 OVC150=



000
FTUS43 KSGF 201700
TAFSGF
TAF
KSGF 201720Z 2018/2118 25010KT P6SM SCT025
      TEMPO 2018/2020 BKN025
     FM202000 24008KT P6SM FEW030 SCT050
     FM210100 23005KT P6SM FEW050 SCT100 BKN250 PROB30 2106/2112 4SM
      -TSRA OVC050CB
     FM211200 30008KT P6SM SCT050 OVC150=



000
FTUS43 KSGF 201100
TAFJLN
TAF
KJLN 201120Z 2012/2112 15005KT 6SM BR FEW250
      TEMPO 2012/2013 4SM BR
     FM201400 21010KT P6SM SCT250
     FM210100 21006KT P6SM FEW050 SCT100 BKN250 PROB30 2104/2108 4SM
      -TSRA OVC050CB
     FM210800 30008KT P6SM SCT050 OVC150=



000
FTUS43 KSGF 201100
TAFSGF
TAF
KSGF 201120Z 2012/2112 15007KT P6SM FEW250
      TEMPO 2012/2013 6SM BR
     FM201500 23010KT P6SM SCT250
     FM210100 23005KT P6SM FEW050 SCT100 BKN250 PROB30 2104/2108 4SM
      -TSRA OVC050CB
     FM210800 30008KT P6SM SCT050 OVC150=



000
FTUS43 KSGF 200800 AAA
TAFJLN
TAF AMD
KJLN 200849Z 2009/2106 15005KT 6SM BR FEW250
      TEMPO 2009/2013 4SM BR
     FM201400 21010KT P6SM SCT250
     FM210100 21006KT P6SM FEW050 SCT100 BKN250=



000
FTUS43 KSGF 200500
TAFJLN
TAF
KJLN 200520Z 2006/2106 15005KT 6SM BR FEW250
      TEMPO 2007/2010 4SM BR
     FM201000 18005KT 4SM BR SCT250
      TEMPO 2010/2013 6SM BR
     FM201400 21010KT P6SM SCT250
     FM210100 21006KT P6SM FEW050 SCT100 BKN250=



000
FTUS43 KSGF 200500
TAFSGF
TAF
KSGF 200520Z 2006/2106 15007KT P6SM FEW250
      TEMPO 2011/2013 4SM BR
     FM201500 23010KT P6SM SCT250
     FM210100 23005KT P6SM FEW050 SCT100 BKN250=



000
FTUS43 KSGF 200300 AAA
TAFJLN
TAF AMD
KJLN 200316Z 2003/2024 14004KT 6SM BR FEW035
     FM200600 15004KT 4SM BR SCT030
     FM201500 23010KT P6SM SCT250=



000
FTUS43 KSGF 192300
TAFJLN
TAF
KJLN 192326Z 2000/2024 16006KT P6SM SKC
     FM201500 23010KT P6SM SCT250=



000
FTUS43 KSGF 192300
TAFSGF
TAF
KSGF 192326Z 2000/2024 16007KT P6SM SKC
      TEMPO 2011/2013 4SM BR
     FM201500 23009KT P6SM SCT250=



000
FTUS43 KSGF 191700 CCA
TAFJLN
TAF COR
KJLN 191759Z 1918/2018 17005KT P6SM BKN025
     FM192300 15006KT P6SM SCT020
     FM200300 16004KT P6SM SKC
     FM201500 21010KT P6SM BKN025=



000
FTUS43 KSGF 191700
TAFJLN
TAF
KJLN 191720Z 1918/2018 17005KT P6SM BKN015
     FM192300 15006KT P6SM SCT020
     FM200300 16004KT P6SM SKC
     FM201500 21010KT P6SM BKN025=



000
FTUS43 KSGF 191700
TAFSGF
TAF
KSGF 191720Z 1918/2018 16005KT P6SM SCT030 SCT250
     FM192200 15006KT P6SM SKC=



000
FTUS43 KSGF 191600 AAA
TAFJLN
TAF AMD
KJLN 191635Z 1917/2012 16008KT P6SM BKN015
     FM192300 16004KT P6SM SCT025=



000
FTUS43 KSGF 191100
TAFJLN
TAF
KJLN 191120Z 1912/2012 13005KT P6SM FEW010 BKN250
     FM191400 15008KT P6SM SCT020 BKN250
     FM191600 16008KT P6SM FEW250=



000
FTUS43 KSGF 191100
TAFSGF
TAF
KSGF 191120Z 1912/2012 13005KT P6SM FEW015
     FM191600 14009KT P6SM SCT030 SCT250=



000
FTUS43 KSGF 191000 AAA
TAFJLN
TAF AMD
KJLN 191001Z 1910/2006 13005KT P6SM FEW010 BKN250
     FM191400 15008KT P6SM SCT020 BKN250
     FM191600 16008KT P6SM FEW250=



000
FTUS43 KSGF 190800 AAA
TAFSGF
TAF AMD
KSGF 190845Z 1909/2006 13005KT 4SM BR BKN030
      TEMPO 1911/1913 OVC015
     FM191400 14009KT P6SM SCT007 BKN030
     FM191600 14009KT P6SM SCT030 SCT250=



000
FTUS43 KSGF 190500
TAFSGF
TAF
KSGF 190520Z 1906/2006 12008KT P6SM BKN015
      TEMPO 1906/1907 SCT015
     FM190700 13005KT 6SM BR BKN015
     FM190900 13005KT 4SM BR BKN007 OVC012
     FM191400 14009KT P6SM SCT007 BKN015
     FM191600 14009KT P6SM SCT030 SCT250=



000
FTUS43 KSGF 190500
TAFJLN
TAF
KJLN 190520Z 1906/2006 12005KT P6SM SCT015
     FM191000 13005KT 5SM BR SCT010 BKN250
     FM191400 15008KT P6SM SCT020 BKN250
     FM191600 16008KT P6SM FEW250=



000
FTUS43 KSGF 190200 AAA
TAFSGF
TAF AMD
KSGF 190218Z 1902/1924 12008KT P6SM BKN015
      TEMPO 1904/1907 SCT015
     FM190700 13005KT 6SM BR BKN015
     FM190900 13005KT 4SM BR BKN007 OVC012
     FM191400 14009KT P6SM SCT007 BKN015
     FM191600 14009KT P6SM SCT030 SCT250=



000
FTUS43 KSGF 182300
TAFSGF
TAF
KSGF 182336Z 1900/1924 12008KT P6SM BKN040
     FM190600 13005KT 6SM BR SCT010 BKN040
     FM190900 13005KT 4SM BR BKN007 OVC012
     FM191400 14009KT P6SM SCT007 BKN015
     FM191600 14009KT P6SM SCT030 SCT250=



000
FTUS43 KSGF 182300
TAFJLN
TAF
KJLN 182336Z 1900/1924 11007KT P6SM SCT035
     FM190600 12005KT 6SM BR SCT015
     FM191000 13005KT 4SM BR SCT010 BKN250
     FM191400 15008KT P6SM SCT020 BKN250
     FM191600 16008KT P6SM FEW250=



    US Dept of Commerce
    National Oceanic and Atmospheric Administration
    National Weather Service
    1325 East West Highway
    Silver Spring, MD 20910
    Page Author: NWS Internet Services Team
Disclaimer
Information Quality
Credits
Glossary
Privacy Policy
Freedom of Information Act (FOIA)
About Us
Career Opportunities